createdAt,value
2019-02-22T00:00:19.234Z,19
2019-02-22T00:01:19.087Z,19
2019-02-22T00:02:19.253Z,19
2019-02-22T00:03:19.328Z,18.97
2019-02-22T00:04:19.226Z,18.98
2019-02-22T00:05:20.776Z,18.99
2019-02-22T00:06:19.346Z,18.99
2019-02-22T00:07:18.782Z,18.97
2019-02-22T00:08:20.802Z,18.98
2019-02-22T00:09:20.895Z,18.97
2019-02-22T00:10:18.998Z,18.96
2019-02-22T00:11:19.045Z,18.96
2019-02-22T00:12:19.537Z,18.95
2019-02-22T00:13:20.811Z,18.96
2019-02-22T00:14:18.781Z,18.95
2019-02-22T00:15:18.720Z,18.95
2019-02-22T00:16:19.440Z,18.95
2019-02-22T00:17:19.663Z,18.95
2019-02-22T00:18:19.070Z,18.95
2019-02-22T00:19:18.990Z,18.93
2019-02-22T00:20:19.072Z,18.94
2019-02-22T00:21:20.644Z,18.93
2019-02-22T00:22:19.254Z,18.92
2019-02-22T00:23:19.434Z,18.93
2019-02-22T00:24:18.926Z,18.93
2019-02-22T00:25:19.097Z,18.93
2019-02-22T00:26:18.963Z,18.95
2019-02-22T00:27:19.096Z,18.93
2019-02-22T00:28:19.364Z,18.92
2019-02-22T00:29:19.123Z,18.92
2019-02-22T00:30:21.805Z,18.91
2019-02-22T00:31:19.258Z,18.92
2019-02-22T00:32:18.855Z,18.91
2019-02-22T00:33:19.093Z,18.89
2019-02-22T00:34:20.216Z,18.91
2019-02-22T00:35:20.187Z,18.89
2019-02-22T00:36:19.563Z,18.88
2019-02-22T00:37:19.764Z,18.88
2019-02-22T00:38:19.090Z,18.88
2019-02-22T00:41:19.361Z,18.86
2019-02-22T00:42:18.806Z,18.87
2019-02-22T00:43:18.989Z,18.86
2019-02-22T00:44:19.171Z,18.86
2019-02-22T00:45:19.644Z,18.85
2019-02-22T00:46:19.238Z,18.86
2019-02-22T00:47:19.331Z,18.86
2019-02-22T00:48:18.773Z,18.84
2019-02-22T00:49:18.897Z,18.86
2019-02-22T00:50:18.772Z,18.83
2019-02-22T00:51:19.851Z,18.83
2019-02-22T00:52:19.376Z,18.86
2019-02-22T00:53:18.917Z,18.84
2019-02-22T00:54:19.001Z,18.83
2019-02-22T00:55:19.056Z,18.83
2019-02-22T00:56:19.818Z,18.84
2019-02-22T00:57:19.631Z,18.83
2019-02-22T00:58:19.332Z,18.81
2019-02-22T00:59:18.796Z,18.84
2019-02-22T01:00:19.119Z,18.81
2019-02-22T01:01:19.092Z,18.82
2019-02-22T01:02:19.367Z,18.84
2019-02-22T01:03:19.160Z,18.81
2019-02-22T01:04:19.157Z,18.8
2019-02-22T01:05:18.975Z,18.81
2019-02-22T01:06:19.262Z,18.81
2019-02-22T01:07:19.083Z,18.8
2019-02-22T01:08:18.954Z,18.79
2019-02-22T01:09:19.092Z,18.78
2019-02-22T01:10:18.894Z,18.79
2019-02-22T01:11:19.520Z,18.81
2019-02-22T01:12:19.099Z,18.78
2019-02-22T01:13:18.831Z,18.77
2019-02-22T01:14:19.380Z,18.79
2019-02-22T01:15:19.362Z,18.78
2019-02-22T01:16:18.927Z,18.77
2019-02-22T01:17:18.880Z,18.78
2019-02-22T01:18:18.943Z,18.77
2019-02-22T01:19:20.411Z,18.74
2019-02-22T01:20:19.042Z,18.77
2019-02-22T01:21:19.341Z,18.76
2019-02-22T01:22:19.182Z,18.77
2019-02-22T01:23:19.453Z,18.77
2019-02-22T01:24:19.035Z,18.74
2019-02-22T01:25:18.919Z,18.74
2019-02-22T01:26:20.846Z,18.73
2019-02-22T01:27:18.745Z,18.72
2019-02-22T01:28:19.662Z,18.72
2019-02-22T01:29:19.005Z,18.73
2019-02-22T01:30:19.069Z,18.72
2019-02-22T01:31:19.121Z,18.72
2019-02-22T01:32:19.092Z,18.72
2019-02-22T01:33:18.895Z,18.72
2019-02-22T01:34:20.863Z,18.71
2019-02-22T01:35:18.942Z,18.71
2019-02-22T01:36:19.081Z,18.7
2019-02-22T01:37:18.863Z,18.72
2019-02-22T01:38:18.733Z,18.72
2019-02-22T01:39:18.754Z,18.69
2019-02-22T01:40:18.924Z,18.72
2019-02-22T01:41:18.758Z,18.71
2019-02-22T01:42:18.825Z,18.69
2019-02-22T01:43:19.049Z,18.7
2019-02-22T01:44:20.252Z,18.69
2019-02-22T01:45:19.263Z,18.69
2019-02-22T01:46:18.885Z,18.69
2019-02-22T01:47:19.261Z,18.68
2019-02-22T01:48:19.073Z,18.69
2019-02-22T01:49:19.233Z,18.67
2019-02-22T01:50:19.209Z,18.69
2019-02-22T01:51:19.232Z,18.68
2019-02-22T01:52:19.102Z,18.67
2019-02-22T01:53:19.345Z,18.68
2019-02-22T01:54:19.737Z,18.68
2019-02-22T01:55:19.118Z,18.67
2019-02-22T01:56:18.902Z,18.67
2019-02-22T01:57:18.713Z,18.67
2019-02-22T01:58:18.786Z,18.66
2019-02-22T01:59:18.891Z,18.66
2019-02-22T02:00:20.793Z,18.66
2019-02-22T02:01:19.211Z,18.64
2019-02-22T02:02:18.676Z,18.64
2019-02-22T02:03:19.072Z,18.66
2019-02-22T02:04:18.858Z,18.65
2019-02-22T02:05:18.786Z,18.62
2019-02-22T02:06:19.201Z,18.63
2019-02-22T02:07:18.785Z,18.65
2019-02-22T02:08:18.873Z,18.65
2019-02-22T02:09:19.174Z,18.62
2019-02-22T02:10:18.763Z,18.64
2019-02-22T02:11:18.937Z,18.63
2019-02-22T02:12:19.035Z,18.62
2019-02-22T02:13:19.028Z,18.62
2019-02-22T02:14:19.265Z,18.64
2019-02-22T02:15:19.087Z,18.63
2019-02-22T02:16:19.023Z,18.63
2019-02-22T02:17:19.166Z,18.62
2019-02-22T02:18:19.699Z,18.62
2019-02-22T02:19:18.822Z,18.62
2019-02-22T02:20:20.072Z,18.59
2019-02-22T02:21:19.188Z,18.62
2019-02-22T02:22:19.436Z,18.62
2019-02-22T02:23:20.844Z,18.62
2019-02-22T02:24:18.852Z,18.58
2019-02-22T02:25:19.748Z,18.59
2019-02-22T02:26:19.959Z,18.58
2019-02-22T02:27:18.666Z,18.58
2019-02-22T02:28:19.804Z,18.57
2019-02-22T02:29:19.159Z,18.57
2019-02-22T02:30:19.297Z,18.58
2019-02-22T02:31:19.130Z,18.57
2019-02-22T02:32:19.292Z,18.59
2019-02-22T02:33:19.312Z,18.57
2019-02-22T02:34:20.846Z,18.58
2019-02-22T02:35:18.857Z,18.56
2019-02-22T02:36:19.123Z,18.58
2019-02-22T02:37:19.330Z,18.59
2019-02-22T02:38:20.989Z,18.56
2019-02-22T02:39:18.962Z,18.56
2019-02-22T02:40:19.569Z,18.56
2019-02-22T02:41:19.178Z,18.53
2019-02-22T02:42:19.104Z,18.55
2019-02-22T02:43:19.199Z,18.54
2019-02-22T02:44:18.973Z,18.54
2019-02-22T02:45:19.491Z,18.54
2019-02-22T02:46:19.475Z,18.56
2019-02-22T02:47:19.949Z,18.55
2019-02-22T02:48:19.945Z,18.55
2019-02-22T02:49:19.019Z,18.55
2019-02-22T02:50:18.984Z,18.55
2019-02-22T02:51:19.897Z,18.53
2019-02-22T02:52:19.626Z,18.53
2019-02-22T02:53:19.211Z,18.52
2019-02-22T02:54:19.439Z,18.53
2019-02-22T02:55:19.259Z,18.53
2019-02-22T02:56:20.821Z,18.53
2019-02-22T02:57:19.542Z,18.53
2019-02-22T02:58:19.184Z,18.52
2019-02-22T02:59:19.471Z,18.52
2019-02-22T03:00:18.949Z,18.52
2019-02-22T03:01:19.087Z,18.51
2019-02-22T03:02:19.187Z,18.5
2019-02-22T03:03:19.410Z,18.51
2019-02-22T03:04:20.681Z,18.51
2019-02-22T03:05:18.978Z,18.5
2019-02-22T03:06:18.825Z,18.51
2019-02-22T03:07:20.729Z,18.5
2019-02-22T03:08:19.653Z,18.49
2019-02-22T03:09:19.023Z,18.49
2019-02-22T03:10:19.093Z,18.48
2019-02-22T03:11:21.593Z,18.5
2019-02-22T03:12:19.125Z,18.48
2019-02-22T03:13:18.779Z,18.49
2019-02-22T03:14:19.361Z,18.48
2019-02-22T03:15:19.794Z,18.49
2019-02-22T03:16:19.029Z,18.49
2019-02-22T03:17:19.076Z,18.49
2019-02-22T03:18:18.988Z,18.49
2019-02-22T03:19:19.187Z,18.48
2019-02-22T03:20:20.680Z,18.49
2019-02-22T03:21:19.121Z,18.49
2019-02-22T03:22:19.849Z,18.49
2019-02-22T03:23:19.446Z,18.47
2019-02-22T03:24:19.333Z,18.46
2019-02-22T03:25:19.096Z,18.47
2019-02-22T03:26:19.060Z,18.44
2019-02-22T03:27:19.212Z,18.44
2019-02-22T03:28:19.056Z,18.47
2019-02-22T03:29:18.975Z,18.44
2019-02-22T03:30:19.972Z,18.47
2019-02-22T03:31:19.771Z,18.43
2019-02-22T03:32:18.833Z,18.44
2019-02-22T03:33:19.020Z,18.44
2019-02-22T03:34:20.055Z,18.44
2019-02-22T03:35:19.094Z,18.44
2019-02-22T03:36:19.051Z,18.42
2019-02-22T03:37:19.247Z,18.42
2019-02-22T03:38:19.146Z,18.44
2019-02-22T03:39:19.273Z,18.42
2019-02-22T03:40:18.770Z,18.43
2019-02-22T03:41:18.893Z,18.42
2019-02-22T03:42:19.304Z,18.43
2019-02-22T03:43:18.998Z,18.42
2019-02-22T03:44:18.844Z,18.44
2019-02-22T03:45:19.204Z,18.42
2019-02-22T03:46:19.009Z,18.41
2019-02-22T03:47:19.111Z,18.4
2019-02-22T03:48:19.264Z,18.41
2019-02-22T03:49:18.999Z,18.41
2019-02-22T03:50:19.238Z,18.41
2019-02-22T03:51:19.462Z,18.4
2019-02-22T03:52:19.558Z,18.39
2019-02-22T03:53:19.250Z,18.4
2019-02-22T03:54:19.258Z,18.4
2019-02-22T03:55:19.262Z,18.4
2019-02-22T03:56:19.094Z,18.4
2019-02-22T03:57:19.978Z,18.37
2019-02-22T03:58:19.105Z,18.37
2019-02-22T03:59:19.218Z,18.37
2019-02-22T04:00:19.938Z,18.37
2019-02-22T04:01:20.688Z,18.39
2019-02-22T04:02:19.014Z,18.39
2019-02-22T04:03:19.100Z,18.38
2019-02-22T04:04:19.149Z,18.38
2019-02-22T04:05:19.086Z,18.37
2019-02-22T04:06:19.339Z,18.37
2019-02-22T04:07:19.259Z,18.37
2019-02-22T04:08:19.177Z,18.36
2019-02-22T04:09:19.226Z,18.36
2019-02-22T04:10:19.264Z,18.37
2019-02-22T04:11:19.094Z,18.38
2019-02-22T04:12:20.051Z,18.37
2019-02-22T04:13:18.915Z,18.37
2019-02-22T04:14:19.792Z,18.35
2019-02-22T04:15:19.124Z,18.35
2019-02-22T04:16:18.840Z,18.34
2019-02-22T04:17:20.750Z,18.38
2019-02-22T04:18:19.630Z,18.33
2019-02-22T04:19:19.366Z,18.33
2019-02-22T04:20:19.117Z,18.35
2019-02-22T04:21:18.929Z,18.34
2019-02-22T04:22:18.972Z,18.35
2019-02-22T04:23:19.283Z,18.34
2019-02-22T04:24:18.993Z,18.33
2019-02-22T04:25:19.123Z,18.34
2019-02-22T04:26:18.998Z,18.33
2019-02-22T04:27:18.865Z,18.35
2019-02-22T04:28:19.691Z,18.35
2019-02-22T04:29:19.199Z,18.34
2019-02-22T04:30:18.726Z,18.33
2019-02-22T04:31:19.162Z,18.34
2019-02-22T04:32:19.114Z,18.32
2019-02-22T04:33:19.139Z,18.33
2019-02-22T04:34:19.346Z,18.32
2019-02-22T04:35:19.754Z,18.33
2019-02-22T04:36:19.377Z,18.33
2019-02-22T04:37:19.152Z,18.32
2019-02-22T04:38:18.990Z,18.33
2019-02-22T04:39:18.962Z,18.3
2019-02-22T04:40:19.096Z,18.32
2019-02-22T04:41:19.267Z,18.29
2019-02-22T04:42:18.985Z,18.32
2019-02-22T04:43:19.015Z,18.33
2019-02-22T04:44:20.807Z,18.3
2019-02-22T04:45:18.996Z,18.32
2019-02-22T04:46:19.450Z,18.29
2019-02-22T04:47:19.014Z,18.32
2019-02-22T04:48:19.167Z,18.28
2019-02-22T04:49:19.141Z,18.29
2019-02-22T04:50:19.161Z,18.29
2019-02-22T04:51:18.891Z,18.27
2019-02-22T04:52:19.003Z,18.28
2019-02-22T04:53:19.003Z,18.27
2019-02-22T04:54:19.099Z,18.29
2019-02-22T04:55:19.670Z,18.28
2019-02-22T04:56:19.298Z,18.29
2019-02-22T04:57:19.284Z,18.3
2019-02-22T04:58:18.792Z,18.3
2019-02-22T04:59:19.033Z,18.34
2019-02-22T05:00:18.686Z,18.34
2019-02-22T05:01:19.156Z,18.33
2019-02-22T05:02:19.097Z,18.38
2019-02-22T05:03:19.140Z,18.38
2019-02-22T05:04:19.079Z,18.4
2019-02-22T05:05:18.743Z,18.41
2019-02-22T05:06:18.715Z,18.42
2019-02-22T05:07:18.981Z,18.46
2019-02-22T05:08:18.920Z,18.44
2019-02-22T05:09:18.748Z,18.49
2019-02-22T05:10:18.920Z,18.5
2019-02-22T05:11:19.150Z,18.51
2019-02-22T05:12:18.750Z,18.52
2019-02-22T05:13:19.287Z,18.53
2019-02-22T05:14:18.912Z,18.55
2019-02-22T05:15:18.894Z,18.57
2019-02-22T05:16:19.130Z,18.59
2019-02-22T05:17:19.051Z,18.58
2019-02-22T05:18:19.976Z,18.62
2019-02-22T05:19:18.940Z,18.63
2019-02-22T05:20:19.420Z,18.64
2019-02-22T05:21:19.178Z,18.65
2019-02-22T05:22:18.789Z,18.65
2019-02-22T05:23:19.298Z,18.68
2019-02-22T05:24:18.892Z,18.71
2019-02-22T05:25:19.382Z,18.72
2019-02-22T05:26:18.950Z,18.72
2019-02-22T05:27:19.354Z,18.73
2019-02-22T05:28:20.972Z,18.77
2019-02-22T05:29:20.674Z,18.77
2019-02-22T05:30:19.485Z,18.78
2019-02-22T05:31:18.817Z,18.79
2019-02-22T05:32:19.144Z,18.81
2019-02-22T05:33:19.646Z,18.82
2019-02-22T05:34:18.689Z,18.83
2019-02-22T05:35:19.253Z,18.85
2019-02-22T05:36:19.307Z,18.84
2019-02-22T05:37:18.829Z,18.86
2019-02-22T05:38:18.982Z,18.87
2019-02-22T05:39:19.921Z,18.88
2019-02-22T05:40:19.291Z,18.91
2019-02-22T05:41:19.175Z,18.92
2019-02-22T05:42:23.597Z,18.92
2019-02-22T05:43:19.139Z,18.94
2019-02-22T05:44:19.083Z,18.96
2019-02-22T05:45:18.993Z,18.95
2019-02-22T05:46:19.462Z,18.97
2019-02-22T05:47:19.288Z,18.99
2019-02-22T05:48:18.856Z,18.98
2019-02-22T05:49:22.835Z,19.01
2019-02-22T05:50:19.147Z,19.02
2019-02-22T05:51:19.120Z,19.05
2019-02-22T05:52:20.660Z,19.05
2019-02-22T05:53:19.026Z,19.05
2019-02-22T05:54:18.753Z,19.08
2019-02-22T05:55:18.756Z,19.07
2019-02-22T05:56:20.691Z,19.09
2019-02-22T05:57:18.858Z,19.1
2019-02-22T05:58:19.310Z,19.12
2019-02-22T05:59:18.868Z,19.13
2019-02-22T06:00:19.270Z,19.12
2019-02-22T06:01:20.764Z,19.15
2019-02-22T06:02:19.780Z,19.15
2019-02-22T06:03:19.083Z,19.15
2019-02-22T06:04:18.820Z,19.15
2019-02-22T06:05:20.567Z,19.17
2019-02-22T06:06:19.091Z,19.18
2019-02-22T06:07:19.300Z,19.17
2019-02-22T06:08:18.934Z,19.21
2019-02-22T06:09:18.961Z,19.2
2019-02-22T06:10:19.208Z,19.26
2019-02-22T06:11:20.758Z,19.25
2019-02-22T06:12:19.166Z,19.24
2019-02-22T06:13:18.913Z,19.24
2019-02-22T06:14:19.236Z,19.25
2019-02-22T06:15:19.125Z,19.27
2019-02-22T06:16:18.702Z,19.29
2019-02-22T06:17:19.099Z,19.28
2019-02-22T06:18:19.361Z,19.31
2019-02-22T06:19:18.923Z,19.3
2019-02-22T06:20:18.935Z,19.33
2019-02-22T06:21:19.225Z,19.31
2019-02-22T06:22:30.234Z,19.35
2019-02-22T06:23:19.966Z,19.33
2019-02-22T06:24:19.744Z,19.32
2019-02-22T06:25:18.834Z,19.32
2019-02-22T06:26:18.912Z,19.35
2019-02-22T06:27:20.024Z,19.37
2019-02-22T06:28:18.692Z,19.4
2019-02-22T06:29:19.133Z,19.38
2019-02-22T06:30:18.856Z,19.37
2019-02-22T06:31:18.943Z,19.39
2019-02-22T06:32:19.834Z,19.4
2019-02-22T06:33:18.953Z,19.4
2019-02-22T06:34:18.831Z,19.4
2019-02-22T06:35:19.074Z,19.43
2019-02-22T06:36:18.990Z,19.43
2019-02-22T06:37:19.111Z,19.45
2019-02-22T06:38:20.031Z,19.43
2019-02-22T06:39:20.607Z,19.45
2019-02-22T06:40:18.747Z,19.44
2019-02-22T06:41:18.866Z,19.45
2019-02-22T06:42:18.616Z,19.45
2019-02-22T06:43:19.008Z,19.45
2019-02-22T06:44:18.742Z,19.47
2019-02-22T06:45:19.992Z,19.45
2019-02-22T06:46:18.834Z,19.48
2019-02-22T06:47:23.105Z,19.5
2019-02-22T06:48:18.935Z,19.5
2019-02-22T06:49:18.839Z,19.5
2019-02-22T06:50:18.973Z,19.51
2019-02-22T06:51:18.833Z,19.51
2019-02-22T06:52:19.509Z,19.51
2019-02-22T06:53:19.652Z,19.52
2019-02-22T06:54:19.307Z,19.52
2019-02-22T06:55:18.941Z,19.52
2019-02-22T06:56:18.774Z,19.55
2019-02-22T06:57:19.155Z,19.54
2019-02-22T06:58:19.559Z,19.54
2019-02-22T06:59:19.172Z,19.55
2019-02-22T07:00:19.062Z,19.52
2019-02-22T07:01:18.929Z,19.56
2019-02-22T07:02:19.293Z,19.57
2019-02-22T07:03:19.161Z,19.55
2019-02-22T07:04:19.862Z,19.57
2019-02-22T07:05:19.718Z,19.57
2019-02-22T07:06:20.168Z,19.59
2019-02-22T07:07:20.539Z,19.59
2019-02-22T07:08:19.526Z,19.59
2019-02-22T07:09:19.027Z,19.59
2019-02-22T07:10:18.763Z,19.6
2019-02-22T07:11:18.898Z,19.6
2019-02-22T07:12:18.935Z,19.59
2019-02-22T07:13:18.992Z,19.61
2019-02-22T07:14:19.044Z,19.6
2019-02-22T07:15:19.152Z,19.6
2019-02-22T07:16:19.083Z,19.61
2019-02-22T07:17:19.148Z,19.6
2019-02-22T07:18:19.072Z,19.61
2019-02-22T07:19:18.830Z,19.62
2019-02-22T07:20:19.003Z,19.63
2019-02-22T07:21:19.457Z,19.65
2019-02-22T07:22:18.637Z,19.65
2019-02-22T07:23:19.056Z,19.63
2019-02-22T07:24:19.500Z,19.62
2019-02-22T07:25:19.137Z,19.65
2019-02-22T07:26:19.137Z,19.66
2019-02-22T07:27:18.834Z,19.63
2019-02-22T07:28:20.589Z,19.67
2019-02-22T07:29:19.183Z,19.67
2019-02-22T07:30:20.703Z,19.66
2019-02-22T07:31:20.318Z,19.67
2019-02-22T07:32:19.232Z,19.67
2019-02-22T07:33:19.692Z,19.67
2019-02-22T07:34:18.736Z,19.69
2019-02-22T07:35:18.993Z,19.68
2019-02-22T07:36:19.026Z,19.68
2019-02-22T07:37:19.018Z,19.68
2019-02-22T07:38:19.374Z,19.68
2019-02-22T07:39:28.520Z,19.69
2019-02-22T07:40:20.296Z,19.71
2019-02-22T07:41:18.936Z,19.72
2019-02-22T07:42:18.899Z,19.73
2019-02-22T07:43:18.869Z,19.72
2019-02-22T07:44:18.820Z,19.71
2019-02-22T07:45:19.356Z,19.7
2019-02-22T07:46:18.775Z,19.72
2019-02-22T07:47:18.759Z,19.73
2019-02-22T07:48:18.892Z,19.71
2019-02-22T07:49:18.962Z,19.73
2019-02-22T07:50:18.998Z,19.73
2019-02-22T07:51:18.767Z,19.75
2019-02-22T07:52:19.476Z,19.75
2019-02-22T07:53:20.541Z,19.79
2019-02-22T07:54:18.833Z,19.79
2019-02-22T07:55:19.059Z,19.77
2019-02-22T07:56:19.469Z,19.8
2019-02-22T07:57:18.711Z,19.81
2019-02-22T07:58:18.500Z,19.77
2019-02-22T07:59:18.581Z,19.8
2019-02-22T08:00:18.830Z,19.81
2019-02-22T08:01:18.944Z,19.82
2019-02-22T08:02:19.324Z,19.82
2019-02-22T08:03:20.905Z,19.81
2019-02-22T08:04:18.918Z,19.8
2019-02-22T08:05:18.792Z,19.84
2019-02-22T08:06:19.120Z,19.81
2019-02-22T08:07:20.595Z,19.83
2019-02-22T08:08:19.105Z,19.84
2019-02-22T08:09:18.891Z,19.83
2019-02-22T08:10:19.043Z,19.83
2019-02-22T08:11:18.885Z,19.82
2019-02-22T08:12:19.798Z,19.83
2019-02-22T08:13:20.774Z,19.85
2019-02-22T08:14:19.084Z,19.83
2019-02-22T08:15:19.472Z,19.85
2019-02-22T08:16:18.675Z,19.84
2019-02-22T08:17:20.127Z,19.84
2019-02-22T08:18:19.114Z,19.88
2019-02-22T08:19:18.902Z,19.85
2019-02-22T08:20:19.218Z,19.85
2019-02-22T08:21:19.224Z,19.84
2019-02-22T08:22:20.986Z,19.85
2019-02-22T08:23:18.926Z,19.85
2019-02-22T08:24:18.785Z,19.85
2019-02-22T08:25:18.786Z,19.86
2019-02-22T08:26:18.775Z,19.85
2019-02-22T08:27:19.126Z,19.86
2019-02-22T08:28:19.141Z,19.86
2019-02-22T08:29:19.492Z,19.88
2019-02-22T08:30:18.779Z,19.87
2019-02-22T08:31:18.886Z,19.87
2019-02-22T08:32:18.978Z,19.87
2019-02-22T08:33:19.201Z,19.89
2019-02-22T08:34:20.442Z,19.9
2019-02-22T08:35:18.806Z,19.89
2019-02-22T08:36:18.911Z,19.87
2019-02-22T08:37:18.728Z,19.9
2019-02-22T08:38:19.118Z,19.89
2019-02-22T08:39:19.039Z,19.9
2019-02-22T08:40:18.976Z,19.89
2019-02-22T08:41:18.810Z,19.89
2019-02-22T08:42:18.863Z,19.89
2019-02-22T08:43:18.979Z,19.9
2019-02-22T08:44:18.864Z,19.89
2019-02-22T08:45:19.692Z,19.89
2019-02-22T08:46:19.001Z,19.91
2019-02-22T08:47:18.944Z,19.91
2019-02-22T08:48:19.602Z,19.89
2019-02-22T08:49:19.326Z,19.89
2019-02-22T08:50:18.896Z,19.91
2019-02-22T08:51:19.152Z,19.92
2019-02-22T08:52:19.122Z,19.92
2019-02-22T08:53:19.255Z,19.91
2019-02-22T08:54:19.459Z,19.9
2019-02-22T08:55:18.864Z,19.92
2019-02-22T08:56:19.960Z,19.94
2019-02-22T08:57:18.970Z,19.94
2019-02-22T08:58:18.723Z,19.91
2019-02-22T08:59:19.073Z,19.94
2019-02-22T09:00:18.695Z,19.94
2019-02-22T09:01:18.986Z,19.94
2019-02-22T09:02:19.000Z,19.94
2019-02-22T09:03:18.882Z,19.94
2019-02-22T09:04:19.456Z,19.95
2019-02-22T09:05:18.868Z,19.97
2019-02-22T09:06:18.646Z,19.96
2019-02-22T09:07:19.470Z,19.95
2019-02-22T09:08:18.870Z,19.95
2019-02-22T09:09:18.776Z,19.95
2019-02-22T09:10:19.199Z,19.97
2019-02-22T09:11:18.955Z,19.94
2019-02-22T09:12:19.031Z,19.96
2019-02-22T09:13:19.106Z,19.98
2019-02-22T09:14:18.875Z,19.95
2019-02-22T09:15:18.884Z,19.96
2019-02-22T09:16:19.014Z,19.96
2019-02-22T09:17:19.219Z,19.96
2019-02-22T09:18:19.441Z,19.96
2019-02-22T09:19:19.742Z,19.96
2019-02-22T09:20:18.809Z,19.96
2019-02-22T09:21:19.459Z,19.99
2019-02-22T09:22:23.548Z,19.95
2019-02-22T09:23:19.260Z,19.96
2019-02-22T09:24:19.500Z,19.94
2019-02-22T09:25:18.778Z,19.96
2019-02-22T09:26:18.958Z,19.94
2019-02-22T09:27:19.082Z,19.96
2019-02-22T09:28:18.736Z,19.97
2019-02-22T09:29:19.197Z,19.95
2019-02-22T09:30:19.229Z,19.95
2019-02-22T09:31:18.844Z,19.94
2019-02-22T09:32:19.063Z,19.94
2019-02-22T09:33:19.124Z,19.92
2019-02-22T09:34:19.079Z,19.94
2019-02-22T09:35:19.079Z,19.94
2019-02-22T09:36:19.168Z,19.94
2019-02-22T09:37:20.525Z,19.94
2019-02-22T09:38:18.759Z,19.92
2019-02-22T09:39:18.799Z,19.92
2019-02-22T09:40:19.178Z,19.88
2019-02-22T09:41:20.180Z,19.88
2019-02-22T09:42:18.900Z,19.85
2019-02-22T09:43:18.897Z,19.82
2019-02-22T09:44:18.953Z,19.82
2019-02-22T09:45:18.809Z,19.79
2019-02-22T09:46:18.698Z,19.77
2019-02-22T09:47:18.883Z,19.75
2019-02-22T09:48:18.842Z,19.74
2019-02-22T09:49:19.069Z,19.71
2019-02-22T09:50:19.396Z,19.68
2019-02-22T09:51:19.031Z,19.66
2019-02-22T09:52:18.583Z,19.66
2019-02-22T09:53:20.638Z,19.65
2019-02-22T09:54:18.646Z,19.63
2019-02-22T09:55:18.949Z,19.6
2019-02-22T09:56:19.802Z,19.6
2019-02-22T09:57:18.891Z,19.6
2019-02-22T09:58:20.569Z,19.6
2019-02-22T09:59:18.915Z,19.59
2019-02-22T10:00:18.799Z,19.61
2019-02-22T10:01:19.468Z,19.6
2019-02-22T10:02:18.854Z,19.61
2019-02-22T10:03:19.566Z,19.59
2019-02-22T10:04:19.106Z,19.59
2019-02-22T10:05:19.086Z,19.59
2019-02-22T10:06:18.663Z,19.58
2019-02-22T10:07:19.178Z,19.58
2019-02-22T10:08:19.154Z,19.59
2019-02-22T10:09:18.779Z,19.58
2019-02-22T10:10:18.802Z,19.57
2019-02-22T10:11:19.104Z,19.56
2019-02-22T10:12:19.374Z,19.57
2019-02-22T10:13:19.340Z,19.57
2019-02-22T10:14:20.690Z,19.56
2019-02-22T10:15:19.075Z,19.57
2019-02-22T10:16:19.128Z,19.54
2019-02-22T10:17:18.744Z,19.55
2019-02-22T10:18:18.766Z,19.55
2019-02-22T10:19:18.858Z,19.54
2019-02-22T10:20:18.891Z,19.53
2019-02-22T10:21:19.065Z,19.53
2019-02-22T10:22:19.111Z,19.53
2019-02-22T10:23:18.987Z,19.52
2019-02-22T10:24:18.985Z,19.52
2019-02-22T10:25:20.325Z,19.51
2019-02-22T10:26:21.764Z,19.51
2019-02-22T10:27:18.801Z,19.51
2019-02-22T10:28:18.943Z,19.51
2019-02-22T10:29:19.123Z,19.52
2019-02-22T10:30:18.678Z,19.5
2019-02-22T10:31:18.675Z,19.5
2019-02-22T10:32:19.836Z,19.5
2019-02-22T10:33:18.835Z,19.5
2019-02-22T10:34:18.690Z,19.48
2019-02-22T10:35:18.734Z,19.5
2019-02-22T10:36:18.909Z,19.47
2019-02-22T10:37:18.681Z,19.47
2019-02-22T10:38:18.841Z,19.47
2019-02-22T10:39:18.752Z,19.47
2019-02-22T10:40:18.758Z,19.46
2019-02-22T10:41:19.177Z,19.46
2019-02-22T10:42:19.017Z,19.45
2019-02-22T10:43:19.047Z,19.46
2019-02-22T10:44:18.784Z,19.45
2019-02-22T10:45:18.983Z,19.45
2019-02-22T10:46:18.956Z,19.46
2019-02-22T10:47:20.520Z,19.45
2019-02-22T10:48:19.737Z,19.43
2019-02-22T10:49:18.903Z,19.44
2019-02-22T10:50:20.525Z,19.44
2019-02-22T10:51:18.759Z,19.44
2019-02-22T10:52:19.204Z,19.45
2019-02-22T10:53:18.832Z,19.45
2019-02-22T10:54:18.802Z,19.46
2019-02-22T10:55:19.327Z,19.5
2019-02-22T10:56:18.630Z,19.5
2019-02-22T10:57:19.037Z,19.5
2019-02-22T10:58:18.926Z,19.48
2019-02-22T10:59:18.813Z,19.5
2019-02-22T11:00:18.747Z,19.51
2019-02-22T11:01:19.083Z,19.53
2019-02-22T11:02:18.698Z,19.53
2019-02-22T11:03:18.959Z,19.54
2019-02-22T11:04:19.207Z,19.57
2019-02-22T11:05:19.696Z,19.61
2019-02-22T11:06:18.963Z,19.59
2019-02-22T11:07:18.778Z,19.59
2019-02-22T11:08:18.991Z,19.65
2019-02-22T11:09:19.812Z,19.66
2019-02-22T11:10:19.691Z,19.66
2019-02-22T11:11:18.654Z,19.69
2019-02-22T11:12:19.447Z,19.69
2019-02-22T11:13:21.714Z,19.71
2019-02-22T11:14:30.018Z,19.71
2019-02-22T11:15:18.868Z,19.72
2019-02-22T11:16:19.164Z,19.72
2019-02-22T11:17:18.970Z,19.75
2019-02-22T11:18:19.046Z,19.79
2019-02-22T11:19:18.831Z,19.79
2019-02-22T11:20:20.568Z,19.8
2019-02-22T11:21:19.170Z,19.81
2019-02-22T11:22:18.774Z,19.81
2019-02-22T11:23:19.136Z,19.83
2019-02-22T11:24:20.594Z,19.83
2019-02-22T11:25:18.488Z,19.83
2019-02-22T11:26:19.067Z,19.82
2019-02-22T11:27:19.419Z,19.81
2019-02-22T11:28:18.741Z,19.83
2019-02-22T11:29:20.559Z,19.86
2019-02-22T11:30:19.631Z,19.87
2019-02-22T11:31:18.846Z,19.89
2019-02-22T11:32:19.821Z,19.89
2019-02-22T11:33:19.657Z,19.9
2019-02-22T11:34:18.889Z,19.9
2019-02-22T11:35:18.712Z,19.94
2019-02-22T11:36:19.214Z,19.96
2019-02-22T11:37:18.789Z,19.97
2019-02-22T11:38:18.916Z,19.97
2019-02-22T11:39:18.846Z,19.99
2019-02-22T11:40:19.113Z,20
2019-02-22T11:41:18.733Z,20.01
2019-02-22T11:42:20.465Z,20.03
2019-02-22T11:43:18.718Z,20.04
2019-02-22T11:44:18.791Z,20.06
2019-02-22T11:45:18.800Z,20.06
2019-02-22T11:46:19.065Z,20.07
2019-02-22T11:47:18.753Z,20.09
2019-02-22T11:48:18.876Z,20.11
2019-02-22T11:49:18.568Z,20.11
2019-02-22T11:50:18.413Z,20.12
2019-02-22T11:51:18.946Z,20.13
2019-02-22T11:52:18.785Z,20.15
2019-02-22T11:53:18.620Z,20.16
2019-02-22T11:54:18.933Z,20.16
2019-02-22T11:55:20.619Z,20.17
2019-02-22T11:56:18.898Z,20.17
2019-02-22T11:57:20.605Z,20.18
2019-02-22T11:58:19.123Z,20.17
2019-02-22T11:59:18.728Z,20.18
2019-02-22T12:00:18.703Z,20.19
2019-02-22T12:01:19.073Z,20.18
2019-02-22T12:02:18.882Z,20.19
2019-02-22T12:03:25.435Z,20.2
2019-02-22T12:04:19.241Z,20.2
2019-02-22T12:05:18.455Z,20.2
2019-02-22T12:06:18.895Z,20.2
2019-02-22T12:07:19.120Z,20.2
2019-02-22T12:08:18.925Z,20.16
2019-02-22T12:09:18.841Z,20.17
2019-02-22T12:10:18.868Z,20.16
2019-02-22T12:11:19.173Z,20.14
2019-02-22T12:12:18.925Z,20.13
2019-02-22T12:13:19.168Z,20.14
2019-02-22T12:14:18.682Z,20.14
2019-02-22T12:15:19.076Z,20.15
2019-02-22T12:16:19.087Z,20.13
2019-02-22T12:17:19.584Z,20.13
2019-02-22T12:18:19.093Z,20.12
2019-02-22T12:19:20.494Z,20.12
2019-02-22T12:20:18.614Z,20.12
2019-02-22T12:21:18.904Z,20.11
2019-02-22T12:22:18.801Z,20.11
2019-02-22T12:23:18.921Z,20.1
2019-02-22T12:24:19.023Z,20.06
2019-02-22T12:25:20.057Z,20.07
2019-02-22T12:26:19.694Z,20.06
2019-02-22T12:27:19.478Z,20.06
2019-02-22T12:28:18.540Z,20.06
2019-02-22T12:29:18.567Z,20.07
2019-02-22T12:30:18.709Z,20.05
2019-02-22T12:31:19.232Z,20.05
2019-02-22T12:32:18.783Z,20.07
2019-02-22T12:33:18.877Z,20.07
2019-02-22T12:34:19.679Z,20.09
2019-02-22T12:35:18.692Z,20.11
2019-02-22T12:36:18.702Z,20.11
2019-02-22T12:37:19.849Z,20.09
2019-02-22T12:38:18.693Z,20.11
2019-02-22T12:39:19.420Z,20.1
2019-02-22T12:40:19.041Z,20.1
2019-02-22T12:41:18.706Z,20.1
2019-02-22T12:42:18.769Z,20.1
2019-02-22T12:43:18.858Z,20.1
2019-02-22T12:44:18.914Z,20.07
2019-02-22T12:45:18.707Z,20.09
2019-02-22T12:46:18.759Z,20.1
2019-02-22T12:47:19.065Z,20.12
2019-02-22T12:48:19.326Z,20.07
2019-02-22T12:49:18.784Z,20.1
2019-02-22T12:50:18.658Z,20.1
2019-02-22T12:51:19.058Z,20.09
2019-02-22T12:52:18.725Z,20.07
2019-02-22T12:53:18.593Z,20.07
2019-02-22T12:54:18.903Z,20.07
2019-02-22T12:55:18.567Z,20.05
2019-02-22T12:57:19.167Z,20.06
2019-02-22T12:58:19.167Z,20.06